createdAt,value
2024-01-04T00:01:42.718Z,7.04
2024-01-04T00:04:12.220Z,7.06
2024-01-04T00:06:43.067Z,7.09
2024-01-04T00:09:14.400Z,7.08
2024-01-04T00:11:44.435Z,7.07
2024-01-04T00:14:14.235Z,7.08
2024-01-04T00:16:43.729Z,7.09
2024-01-04T00:19:13.730Z,7.06
2024-01-04T00:21:44.130Z,7.06
2024-01-04T00:24:13.524Z,7.09
2024-01-04T00:26:45.380Z,7.07
2024-01-04T00:29:15.366Z,7.05
2024-01-04T00:31:44.540Z,7.01
2024-01-04T00:34:14.515Z,6.96
2024-01-04T00:36:44.588Z,6.96
2024-01-04T00:39:15.764Z,6.99
2024-01-04T00:41:45.630Z,7.02
2024-01-04T00:44:15.580Z,7.07
2024-01-04T00:46:45.672Z,7.10
2024-01-04T00:49:14.692Z,7.15
2024-01-04T00:51:44.523Z,7.18
2024-01-04T00:54:14.910Z,7.22
2024-01-04T00:56:44.525Z,7.19
2024-01-04T00:59:13.930Z,7.22
2024-01-04T01:01:44.323Z,7.23
2024-01-04T01:04:13.538Z,7.24
2024-01-04T01:06:43.679Z,7.24
2024-01-04T01:09:14.116Z,7.25
2024-01-04T01:11:43.895Z,7.21
2024-01-04T01:14:12.871Z,7.27
2024-01-04T01:16:43.242Z,7.21
2024-01-04T01:19:13.277Z,7.18
2024-01-04T01:21:43.564Z,7.18
2024-01-04T01:24:14.185Z,7.20
2024-01-04T01:26:45.768Z,7.21
2024-01-04T01:29:15.545Z,7.18
2024-01-04T01:31:46.636Z,7.08
2024-01-04T01:34:16.571Z,7.10
2024-01-04T01:36:47.754Z,7.13
2024-01-04T01:39:18.452Z,7.10
2024-01-04T01:41:49.789Z,7.06
2024-01-04T01:44:20.538Z,7.07
2024-01-04T01:46:51.152Z,7.06
2024-01-04T01:49:23.484Z,7.01
2024-01-04T01:51:55.615Z,7.00
2024-01-04T01:54:27.688Z,7.08
2024-01-04T01:56:58.970Z,7.06
2024-01-04T01:59:30.734Z,7.09
2024-01-04T02:02:02.819Z,7.10
2024-01-04T02:04:36.186Z,7.08
2024-01-04T02:07:08.829Z,7.13
2024-01-04T02:09:39.456Z,7.22
2024-01-04T02:12:15.743Z,7.24
2024-01-04T02:14:47.308Z,7.15
2024-01-04T02:17:18.255Z,7.15
2024-01-04T02:19:50.453Z,7.06
2024-01-04T02:22:21.349Z,7.06
2024-01-04T02:24:52.308Z,6.89
2024-01-04T02:27:23.403Z,6.84
2024-01-04T02:29:54.378Z,6.71
2024-01-04T02:32:25.177Z,6.63
2024-01-04T02:34:56.643Z,6.61
2024-01-04T02:37:26.895Z,6.56
2024-01-04T02:39:56.885Z,6.48
2024-01-04T02:42:27.757Z,6.43
2024-01-04T02:44:58.744Z,6.43
2024-01-04T02:47:30.423Z,6.33
2024-01-04T02:50:01.977Z,6.35
2024-01-04T02:52:33.221Z,6.31
2024-01-04T02:55:04.595Z,6.26
2024-01-04T02:57:34.813Z,6.21
2024-01-04T03:00:07.188Z,6.14
2024-01-04T03:02:37.857Z,6.09
2024-01-04T03:05:07.865Z,6.03
2024-01-04T03:07:38.972Z,5.98
2024-01-04T03:10:09.036Z,5.93
2024-01-04T03:12:41.656Z,5.88
2024-01-04T03:15:13.050Z,5.82
2024-01-04T03:17:43.882Z,5.77
2024-01-04T03:20:16.630Z,5.71
2024-01-04T03:22:47.612Z,5.65
2024-01-04T03:25:18.441Z,5.64
2024-01-04T03:27:50.744Z,5.63
2024-01-04T03:30:21.915Z,5.62
2024-01-04T03:32:52.810Z,5.60
2024-01-04T03:35:23.558Z,5.55
2024-01-04T03:37:58.468Z,5.52
2024-01-04T03:40:28.343Z,5.48
2024-01-04T03:43:00.078Z,5.44
2024-01-04T03:45:30.621Z,5.40
2024-01-04T03:48:01.566Z,5.36
2024-01-04T03:50:32.495Z,5.33
2024-01-04T03:53:02.670Z,5.31
2024-01-04T03:55:33.624Z,5.22
2024-01-04T03:58:04.290Z,5.13
2024-01-04T04:00:34.196Z,5.06
2024-01-04T04:03:04.777Z,5.00
2024-01-04T04:05:36.305Z,4.92
2024-01-04T04:08:07.838Z,4.82
2024-01-04T04:10:38.918Z,4.74
2024-01-04T04:13:10.460Z,4.69
2024-01-04T04:15:40.823Z,4.65
2024-01-04T04:18:12.254Z,4.65
2024-01-04T04:20:44.127Z,4.66
2024-01-04T04:23:15.028Z,4.67
2024-01-04T04:25:46.458Z,4.68
2024-01-04T04:28:17.085Z,4.72
2024-01-04T04:30:48.591Z,4.77
2024-01-04T04:33:20.404Z,4.79
2024-01-04T04:35:55.970Z,4.80
2024-01-04T04:38:33.799Z,4.81
2024-01-04T04:41:09.556Z,4.82
2024-01-04T04:43:40.412Z,4.80
2024-01-04T04:46:12.050Z,4.78
2024-01-04T04:48:42.635Z,4.75
2024-01-04T04:51:14.131Z,4.74
2024-01-04T04:53:44.706Z,4.72
2024-01-04T04:56:16.233Z,4.71
2024-01-04T04:58:45.893Z,4.69
2024-01-04T05:01:16.052Z,4.65
2024-01-04T05:03:49.119Z,4.64
2024-01-04T05:06:21.065Z,4.62
2024-01-04T05:08:51.320Z,4.59
2024-01-04T05:11:22.096Z,4.58
2024-01-04T05:13:52.191Z,4.56
2024-01-04T05:16:21.977Z,4.56
2024-01-04T05:18:53.199Z,4.54
2024-01-04T05:21:23.811Z,4.50
2024-01-04T05:23:55.845Z,4.23
2024-01-04T05:26:26.974Z,4.19
2024-01-04T05:28:58.720Z,4.24
2024-01-04T05:31:28.939Z,4.28
2024-01-04T05:33:59.066Z,4.28
2024-01-04T05:36:29.541Z,4.27
2024-01-04T05:39:00.563Z,4.24
2024-01-04T05:41:31.941Z,4.24
2024-01-04T05:44:02.859Z,4.26
2024-01-04T05:46:35.197Z,4.30
2024-01-04T05:49:05.348Z,4.33
2024-01-04T05:51:42.330Z,4.35
2024-01-04T05:54:14.446Z,4.13
2024-01-04T05:56:46.747Z,4.12
2024-01-04T05:59:18.131Z,4.12
2024-01-04T06:01:49.780Z,4.15
2024-01-04T06:04:19.683Z,4.13
2024-01-04T06:06:49.631Z,4.11
2024-01-04T06:09:22.770Z,4.09
2024-01-04T06:11:55.658Z,4.09
2024-01-04T06:14:25.843Z,4.12
2024-01-04T06:16:55.663Z,4.13
2024-01-04T06:19:26.287Z,4.14
2024-01-04T06:21:56.195Z,4.16
2024-01-04T06:24:26.699Z,4.20
2024-01-04T06:26:56.927Z,4.23
2024-01-04T06:29:26.342Z,4.29
2024-01-04T06:31:56.077Z,4.35
2024-01-04T06:34:25.602Z,4.41
2024-01-04T06:36:54.960Z,4.43
2024-01-04T06:39:24.955Z,4.46
2024-01-04T06:41:54.282Z,4.50
2024-01-04T06:44:30.782Z,4.53
2024-01-04T06:47:08.342Z,4.56
2024-01-04T06:49:38.206Z,4.59
2024-01-04T06:52:07.548Z,4.65
2024-01-04T06:54:36.972Z,4.73
2024-01-04T06:57:08.795Z,4.96
2024-01-04T06:59:38.381Z,5.04
2024-01-04T07:02:08.047Z,5.04
2024-01-04T07:04:38.515Z,4.98
2024-01-04T07:07:07.901Z,5.02
2024-01-04T07:09:38.806Z,5.09
2024-01-04T07:12:09.446Z,5.16
2024-01-04T07:14:41.655Z,5.20
2024-01-04T07:17:11.197Z,5.23
2024-01-04T07:19:44.828Z,5.28
2024-01-04T07:22:14.104Z,5.33
2024-01-04T07:24:43.394Z,5.37
2024-01-04T07:27:13.046Z,5.42
2024-01-04T07:29:42.570Z,5.46
2024-01-04T07:32:11.808Z,5.49
2024-01-04T07:34:41.801Z,5.52
2024-01-04T07:37:12.270Z,5.63
2024-01-04T07:39:44.229Z,5.62
2024-01-04T07:42:14.476Z,5.65
2024-01-04T07:44:50.449Z,5.70
2024-01-04T07:47:26.998Z,5.84
2024-01-04T07:49:57.126Z,6.03
2024-01-04T07:52:26.502Z,6.05
2024-01-04T07:54:55.898Z,5.88
2024-01-04T07:57:25.611Z,6.00
2024-01-04T07:59:54.927Z,6.15
2024-01-04T08:02:24.109Z,6.19
2024-01-04T08:04:55.467Z,6.23
2024-01-04T08:07:25.638Z,6.25
2024-01-04T08:09:54.981Z,6.23
2024-01-04T08:12:25.018Z,6.22
2024-01-04T08:14:54.220Z,6.22
2024-01-04T08:17:23.912Z,6.23
2024-01-04T08:19:53.571Z,6.26
2024-01-04T08:22:22.916Z,6.31
2024-01-04T08:24:51.894Z,6.35
2024-01-04T08:27:21.661Z,6.37
2024-01-04T08:29:51.551Z,6.40
2024-01-04T08:32:20.406Z,6.42
2024-01-04T08:34:49.986Z,6.45
2024-01-04T08:37:20.751Z,6.48
2024-01-04T08:39:50.356Z,6.51
2024-01-04T08:42:20.876Z,6.54
2024-01-04T08:44:52.601Z,6.56
2024-01-04T08:47:22.163Z,6.59
2024-01-04T08:49:51.268Z,6.61
2024-01-04T08:52:20.539Z,6.63
2024-01-04T08:54:49.849Z,6.65
2024-01-04T08:57:20.388Z,6.68
2024-01-04T08:59:49.901Z,6.70
2024-01-04T09:02:19.394Z,6.72
2024-01-04T09:04:48.712Z,6.76
2024-01-04T09:07:18.393Z,6.81
2024-01-04T09:09:47.375Z,6.85
2024-01-04T09:12:17.209Z,6.88
2024-01-04T09:14:48.786Z,6.92
2024-01-04T09:17:19.495Z,6.95
2024-01-04T09:19:49.432Z,7.02
2024-01-04T09:22:18.316Z,7.05
2024-01-04T09:24:48.544Z,7.07
2024-01-04T09:27:18.726Z,7.12
2024-01-04T09:29:48.960Z,7.15
2024-01-04T09:32:18.588Z,7.18
2024-01-04T09:34:47.597Z,7.19
2024-01-04T09:37:17.983Z,7.18
2024-01-04T09:39:47.480Z,7.16
2024-01-04T09:42:19.107Z,7.14
2024-01-04T09:44:58.393Z,7.08
2024-01-04T09:47:29.360Z,7.03
2024-01-04T09:50:01.419Z,7.05
2024-01-04T09:52:32.624Z,7.06
2024-01-04T09:55:04.872Z,7.06
2024-01-04T09:57:35.423Z,7.05
2024-01-04T10:00:05.504Z,7.00
2024-01-04T10:02:44.375Z,6.97
2024-01-04T10:05:18.420Z,7.04
2024-01-04T10:08:25.051Z,7.08
2024-01-04T10:11:00.283Z,7.11
2024-01-04T10:13:31.627Z,7.18
2024-01-04T10:16:07.442Z,7.26
2024-01-04T10:18:37.870Z,7.29
2024-01-04T10:21:07.575Z,7.31
2024-01-04T10:23:37.035Z,7.34
2024-01-04T10:26:14.931Z,7.36
2024-01-04T10:28:44.021Z,7.39
2024-01-04T10:31:12.975Z,7.42
2024-01-04T10:33:44.725Z,7.43
2024-01-04T10:36:14.785Z,7.46
2024-01-04T10:38:43.957Z,7.50
2024-01-04T10:41:13.409Z,7.50
2024-01-04T10:43:45.050Z,7.51
2024-01-04T10:46:19.388Z,7.48
2024-01-04T10:48:50.629Z,7.50
2024-01-04T10:51:20.453Z,7.47
2024-01-04T10:53:51.585Z,7.45
2024-01-04T10:56:21.695Z,7.47
2024-01-04T10:58:53.672Z,7.44
2024-01-04T11:01:23.592Z,7.40
2024-01-04T11:04:00.864Z,7.34
2024-01-04T11:06:35.618Z,7.29
2024-01-04T11:09:04.931Z,7.29
2024-01-04T11:11:39.626Z,7.29
2024-01-04T11:14:12.134Z,7.30
2024-01-04T11:16:47.932Z,7.19
2024-01-04T11:19:48.502Z,7.22
2024-01-04T11:22:47.103Z,7.19
2024-01-04T11:25:47.688Z,7.19
2024-01-04T11:28:25.775Z,7.23
2024-01-04T11:31:04.444Z,7.22
2024-01-04T11:33:35.322Z,7.21
2024-01-04T11:36:06.393Z,7.20
2024-01-04T11:38:36.537Z,7.20
2024-01-04T11:41:05.718Z,7.09
2024-01-04T11:43:44.301Z,7.12
2024-01-04T11:46:27.022Z,7.17
2024-01-04T11:48:58.320Z,7.18
2024-01-04T11:51:46.655Z,7.15
2024-01-04T11:54:23.117Z,7.10
2024-01-04T11:56:52.419Z,7.10
2024-01-04T11:59:32.291Z,7.11
2024-01-04T12:02:01.755Z,7.13
2024-01-04T12:04:32.925Z,7.14
2024-01-04T12:07:04.104Z,7.14
2024-01-04T12:09:33.237Z,7.10
2024-01-04T12:12:02.262Z,7.08
2024-01-04T12:14:33.572Z,7.06
2024-01-04T12:17:02.977Z,7.05
2024-01-04T12:19:34.257Z,7.06
2024-01-04T12:22:03.254Z,7.05
2024-01-04T12:24:32.962Z,7.08
2024-01-04T12:27:02.343Z,7.20
2024-01-04T12:29:32.302Z,7.22
2024-01-04T12:34:31.302Z,7.27
2024-01-04T12:37:08.317Z,7.32
2024-01-04T12:39:37.730Z,7.30
2024-01-04T12:42:06.745Z,7.27
2024-01-04T12:44:35.921Z,7.31
2024-01-04T12:47:06.315Z,7.32
2024-01-04T12:49:36.794Z,7.36
2024-01-04T12:52:16.011Z,7.42
2024-01-04T12:54:45.204Z,7.44
2024-01-04T12:57:14.194Z,7.41
2024-01-04T12:59:48.042Z,7.43
2024-01-04T13:02:17.399Z,7.50
2024-01-04T13:04:47.217Z,7.51
2024-01-04T13:07:16.116Z,7.45
2024-01-04T13:09:44.994Z,7.48
2024-01-04T13:12:14.027Z,7.49
2024-01-04T13:14:42.913Z,7.48
2024-01-04T13:17:11.996Z,7.46
2024-01-04T13:19:41.343Z,7.43
2024-01-04T13:22:10.682Z,7.45
2024-01-04T13:24:39.672Z,7.39
2024-01-04T13:27:09.295Z,7.33
2024-01-04T13:29:38.279Z,7.34
2024-01-04T13:32:08.588Z,7.37
2024-01-04T13:34:38.153Z,7.30
2024-01-04T13:37:07.595Z,7.28
2024-01-04T13:39:36.805Z,7.26
2024-01-04T13:42:06.874Z,7.25
2024-01-04T13:44:36.025Z,7.30
2024-01-04T13:47:08.537Z,7.28
2024-01-04T13:49:38.497Z,7.30
2024-01-04T13:52:08.377Z,7.32
2024-01-04T13:54:37.115Z,7.40
2024-01-04T13:57:07.745Z,7.50
2024-01-04T13:59:37.348Z,7.49
2024-01-04T14:02:07.356Z,7.89
2024-01-04T14:04:36.664Z,8.50
2024-01-04T14:07:05.819Z,8.98
2024-01-04T14:09:35.562Z,9.42
2024-01-04T14:12:05.668Z,9.72
2024-01-04T14:14:36.834Z,9.97
2024-01-04T14:17:07.472Z,10.17
2024-01-04T14:19:37.031Z,10.32
2024-01-04T14:22:06.277Z,10.22
2024-01-04T14:24:36.591Z,10.17
2024-01-04T14:27:05.967Z,10.06
2024-01-04T14:29:35.947Z,9.98
2024-01-04T14:32:05.841Z,9.87
2024-01-04T14:34:36.246Z,9.70
2024-01-04T14:37:06.476Z,9.67
2024-01-04T14:39:39.080Z,9.30
2024-01-04T14:42:08.277Z,8.82
2024-01-04T14:44:40.831Z,8.41
2024-01-04T14:47:09.925Z,8.02
2024-01-04T14:49:41.021Z,7.62
2024-01-04T14:52:12.707Z,7.30
2024-01-04T14:54:45.123Z,7.07
2024-01-04T14:57:14.145Z,6.93
2024-01-04T14:59:46.235Z,6.85
2024-01-04T15:02:15.337Z,6.78
2024-01-04T15:04:45.573Z,6.69
2024-01-04T15:07:15.171Z,6.54
2024-01-04T15:09:44.661Z,6.45
2024-01-04T15:12:14.214Z,6.41
2024-01-04T15:14:43.152Z,6.40
2024-01-04T15:17:12.069Z,6.45
2024-01-04T15:19:41.502Z,6.48
2024-01-04T15:22:10.567Z,6.44
2024-01-04T15:24:39.781Z,6.47
2024-01-04T15:27:10.310Z,6.48
2024-01-04T15:29:39.489Z,6.52
2024-01-04T15:32:10.638Z,6.54
2024-01-04T15:34:39.697Z,6.46
2024-01-04T15:37:09.511Z,6.44
2024-01-04T15:39:39.042Z,6.38
2024-01-04T15:42:08.682Z,6.35
2024-01-04T15:44:37.533Z,6.39
2024-01-04T15:47:06.716Z,6.39
2024-01-04T15:49:36.786Z,6.43
2024-01-04T15:52:05.740Z,6.42
2024-01-04T15:54:35.806Z,6.45
2024-01-04T15:57:05.614Z,6.42
2024-01-04T15:59:34.568Z,6.38
2024-01-04T16:02:03.881Z,6.32
2024-01-04T16:04:33.278Z,6.32
2024-01-04T16:07:02.484Z,6.35
2024-01-04T16:09:31.776Z,6.36
2024-01-04T16:12:00.941Z,6.40
2024-01-04T16:14:32.355Z,6.42
2024-01-04T16:17:04.787Z,6.42
2024-01-04T16:19:33.713Z,6.38
2024-01-04T16:22:03.899Z,6.37
2024-01-04T16:24:32.776Z,6.35
2024-01-04T16:27:03.745Z,6.31
2024-01-04T16:29:34.482Z,6.28
2024-01-04T16:32:04.583Z,6.25
2024-01-04T16:34:35.697Z,6.22
2024-01-04T16:37:06.291Z,6.19
2024-01-04T16:39:36.031Z,6.16
2024-01-04T16:42:06.440Z,6.11
2024-01-04T16:44:37.457Z,6.08
2024-01-04T16:47:08.461Z,6.05
2024-01-04T16:49:37.861Z,6.08
2024-01-04T16:52:08.289Z,6.09
2024-01-04T16:54:37.212Z,6.10
2024-01-04T16:57:08.398Z,6.12
2024-01-04T17:02:35.396Z,6.13
2024-01-04T17:05:04.702Z,6.15
2024-01-04T17:07:34.307Z,6.15
2024-01-04T17:10:04.704Z,6.14
2024-01-04T17:12:33.665Z,6.11
2024-01-04T17:15:03.417Z,6.15
2024-01-04T17:17:32.327Z,6.17
2024-01-04T17:20:01.359Z,6.20
2024-01-04T17:22:31.689Z,6.19
2024-01-04T17:25:01.616Z,6.21
2024-01-04T17:27:30.801Z,6.18
2024-01-04T17:30:02.042Z,6.24
2024-01-04T17:32:31.233Z,6.23
2024-01-04T17:35:00.172Z,6.22
2024-01-04T17:37:31.092Z,6.27
2024-01-04T17:40:00.419Z,6.24
2024-01-04T17:42:30.067Z,6.27
2024-01-04T17:44:59.826Z,6.23
2024-01-04T17:47:30.069Z,6.25
2024-01-04T17:49:59.439Z,6.22
2024-01-04T17:52:28.666Z,6.23
2024-01-04T17:55:01.887Z,6.24
2024-01-04T17:57:31.239Z,6.23
2024-01-04T18:00:00.589Z,6.18
2024-01-04T18:02:30.603Z,6.22
2024-01-04T18:04:59.685Z,6.21
2024-01-04T18:07:28.664Z,6.28
2024-01-04T18:09:58.065Z,6.31
2024-01-04T18:12:27.424Z,6.32
2024-01-04T18:14:59.472Z,6.34
2024-01-04T18:17:29.906Z,6.32
2024-01-04T18:19:59.330Z,6.25
2024-01-04T18:22:28.462Z,6.23
2024-01-04T18:24:57.192Z,6.21
2024-01-04T18:27:26.161Z,6.20
2024-01-04T18:29:56.289Z,6.20
2024-01-04T18:32:28.322Z,6.19
2024-01-04T18:34:57.391Z,6.22
2024-01-04T18:37:27.040Z,6.21
2024-01-04T18:39:55.842Z,6.20
2024-01-04T18:42:26.390Z,6.19
2024-01-04T18:44:55.561Z,6.17
2024-01-04T18:47:24.444Z,6.16
2024-01-04T18:49:53.473Z,6.18
2024-01-04T18:52:22.719Z,6.18
2024-01-04T18:54:51.820Z,6.15
2024-01-04T18:57:21.142Z,6.14
2024-01-04T18:59:50.057Z,6.18
2024-01-04T19:02:19.616Z,6.20
2024-01-04T19:04:48.751Z,6.17
2024-01-04T19:07:18.539Z,6.21
2024-01-04T19:09:47.300Z,6.21
2024-01-04T19:12:16.946Z,6.24
2024-01-04T19:14:46.141Z,6.19
2024-01-04T19:17:15.100Z,6.20
2024-01-04T19:19:44.869Z,6.21
2024-01-04T19:22:14.117Z,6.23
2024-01-04T19:24:43.943Z,6.25
2024-01-04T19:27:12.834Z,6.24
2024-01-04T19:29:42.220Z,6.22
2024-01-04T19:32:11.451Z,6.21
2024-01-04T19:34:40.243Z,6.19
2024-01-04T19:37:09.402Z,6.16
2024-01-04T19:39:38.923Z,6.16
2024-01-04T19:42:08.022Z,6.15
2024-01-04T19:44:39.713Z,6.14
2024-01-04T19:47:12.553Z,6.13
2024-01-04T19:49:41.722Z,6.12
2024-01-04T19:52:10.727Z,6.11
2024-01-04T19:54:39.720Z,6.09
2024-01-04T19:57:08.603Z,6.05
2024-01-04T19:59:37.502Z,6.04
2024-01-04T20:02:06.703Z,6.03
2024-01-04T20:04:35.736Z,6.02
2024-01-04T20:07:09.698Z,5.99
2024-01-04T20:09:38.595Z,5.96
2024-01-04T20:12:08.062Z,5.93
2024-01-04T20:14:39.242Z,5.93
2024-01-04T20:17:08.247Z,5.92
2024-01-04T20:19:37.166Z,5.89
2024-01-04T20:22:07.053Z,5.86
2024-01-04T20:24:35.849Z,5.83
2024-01-04T20:27:07.214Z,5.87
2024-01-04T20:29:36.272Z,5.89
2024-01-04T20:32:06.082Z,5.90
2024-01-04T20:34:35.042Z,5.90
2024-01-04T20:37:07.678Z,5.90
2024-01-04T20:39:37.873Z,5.90
2024-01-04T20:42:07.567Z,5.90
2024-01-04T20:44:36.569Z,5.90
2024-01-04T20:47:07.623Z,5.90
2024-01-04T20:49:37.836Z,5.90
2024-01-04T20:52:07.347Z,5.91
2024-01-04T20:54:36.427Z,5.89
2024-01-04T20:57:05.852Z,5.87
2024-01-04T20:59:34.842Z,5.86
2024-01-04T21:02:04.034Z,5.85
2024-01-04T21:04:33.158Z,5.83
2024-01-04T21:07:02.051Z,5.82
2024-01-04T21:09:31.464Z,5.81
2024-01-04T21:12:00.385Z,5.80
2024-01-04T21:14:29.514Z,5.80
2024-01-04T21:16:59.133Z,5.78
2024-01-04T21:19:28.064Z,5.77
2024-01-04T21:21:57.851Z,5.76
2024-01-04T21:24:27.089Z,5.74
2024-01-04T21:26:57.508Z,5.69
2024-01-04T21:29:26.542Z,5.63
2024-01-04T21:31:55.335Z,5.58
2024-01-04T21:34:26.678Z,5.49
2024-01-04T21:36:56.080Z,5.38
2024-01-04T21:39:25.422Z,5.30
2024-01-04T21:41:54.230Z,5.29
2024-01-04T21:44:23.164Z,5.26
2024-01-04T21:46:52.560Z,5.27
2024-01-04T21:49:22.806Z,5.36
2024-01-04T21:51:51.877Z,5.50
2024-01-04T21:54:21.419Z,5.60
2024-01-04T21:56:50.200Z,5.67
2024-01-04T21:59:19.289Z,5.72
2024-01-04T22:01:48.370Z,5.79
2024-01-04T22:04:17.439Z,5.84
2024-01-04T22:06:47.359Z,5.84
2024-01-04T22:09:17.530Z,5.85
2024-01-04T22:11:49.006Z,5.84
2024-01-04T22:14:18.249Z,5.82
2024-01-04T22:16:47.449Z,5.83
2024-01-04T22:19:16.681Z,5.84
2024-01-04T22:21:47.382Z,5.89
2024-01-04T22:24:16.977Z,5.81
2024-01-04T22:26:46.722Z,5.81
2024-01-04T22:29:16.197Z,5.76
2024-01-04T22:31:45.178Z,5.69
2024-01-04T22:34:15.340Z,5.73
2024-01-04T22:36:45.099Z,5.73
2024-01-04T22:39:14.444Z,5.72
2024-01-04T22:41:43.617Z,5.74
2024-01-04T22:44:12.912Z,5.75
2024-01-04T22:46:42.318Z,5.75
2024-01-04T22:49:12.176Z,5.73
2024-01-04T22:51:41.231Z,5.81
2024-01-04T22:54:11.619Z,5.80
2024-01-04T22:56:41.226Z,5.81
2024-01-04T22:59:10.266Z,5.82
2024-01-04T23:01:39.362Z,5.77
2024-01-04T23:04:08.818Z,5.77
2024-01-04T23:06:38.416Z,5.72
2024-01-04T23:09:08.762Z,5.71
2024-01-04T23:11:38.138Z,5.68
2024-01-04T23:14:07.596Z,5.73
2024-01-04T23:16:36.724Z,5.70
2024-01-04T23:19:06.084Z,5.68
2024-01-04T23:21:36.042Z,5.67
2024-01-04T23:24:05.828Z,5.60
2024-01-04T23:26:44.040Z,5.56
2024-01-04T23:29:14.525Z,5.48
2024-01-04T23:31:44.202Z,5.45
2024-01-04T23:34:13.303Z,5.39
2024-01-04T23:36:43.944Z,5.29
2024-01-04T23:39:13.969Z,5.23
2024-01-04T23:41:44.202Z,5.18
2024-01-04T23:44:13.530Z,5.15
2024-01-04T23:46:44.013Z,5.09
2024-01-04T23:49:14.273Z,5.03
2024-01-04T23:51:43.679Z,5.00
2024-01-04T23:54:13.882Z,4.94
2024-01-04T23:56:45.092Z,4.93
2024-01-04T23:59:15.531Z,4.90
